sensor_id;sensor_type;location;lat;lon;timestamp;temperature;humidity
20376;DHT22;10347;51.828;6.466;2022-07-03T00:01:20;23.20;92.60
20376;DHT22;10347;51.828;6.466;2022-07-03T00:03:46;23.20;92.60
20376;DHT22;10347;51.828;6.466;2022-07-03T00:06:11;23.20;92.60
20376;DHT22;10347;51.828;6.466;2022-07-03T00:08:37;23.10;92.70
20376;DHT22;10347;51.828;6.466;2022-07-03T00:11:04;23.10;92.70
20376;DHT22;10347;51.828;6.466;2022-07-03T00:13:30;23.10;92.70
20376;DHT22;10347;51.828;6.466;2022-07-03T00:15:55;23.00;92.70
20376;DHT22;10347;51.828;6.466;2022-07-03T00:18:21;23.00;92.70
20376;DHT22;10347;51.828;6.466;2022-07-03T00:20:49;23.00;92.70
20376;DHT22;10347;51.828;6.466;2022-07-03T00:23:18;23.00;92.70
20376;DHT22;10347;51.828;6.466;2022-07-03T00:25:48;22.90;92.80
20376;DHT22;10347;51.828;6.466;2022-07-03T00:28:14;22.90;92.80
20376;DHT22;10347;51.828;6.466;2022-07-03T00:30:42;22.90;92.80
20376;DHT22;10347;51.828;6.466;2022-07-03T00:33:09;22.90;92.80
20376;DHT22;10347;51.828;6.466;2022-07-03T00:35:37;22.90;92.90
20376;DHT22;10347;51.828;6.466;2022-07-03T00:38:04;22.80;92.90
20376;DHT22;10347;51.828;6.466;2022-07-03T00:40:30;22.80;93.00
20376;DHT22;10347;51.828;6.466;2022-07-03T00:42:56;22.80;93.10
20376;DHT22;10347;51.828;6.466;2022-07-03T00:45:25;22.80;93.20
20376;DHT22;10347;51.828;6.466;2022-07-03T00:47:51;22.80;93.70
20376;DHT22;10347;51.828;6.466;2022-07-03T00:50:16;22.70;93.40
20376;DHT22;10347;51.828;6.466;2022-07-03T00:52:46;22.70;93.60
20376;DHT22;10347;51.828;6.466;2022-07-03T00:55:17;22.70;93.90
20376;DHT22;10347;51.828;6.466;2022-07-03T00:57:46;22.70;94.10
20376;DHT22;10347;51.828;6.466;2022-07-03T01:00:14;22.60;94.50
20376;DHT22;10347;51.828;6.466;2022-07-03T01:03:02;22.60;94.50
20376;DHT22;10347;51.828;6.466;2022-07-03T01:05:36;22.60;95.00
20376;DHT22;10347;51.828;6.466;2022-07-03T01:13:18;22.50;95.30
20376;DHT22;10347;51.828;6.466;2022-07-03T01:18:54;22.40;96.20
20376;DHT22;10347;51.828;6.466;2022-07-03T01:21:41;22.40;96.70
20376;DHT22;10347;51.828;6.466;2022-07-03T01:26:41;22.40;96.30
20376;DHT22;10347;51.828;6.466;2022-07-03T01:29:16;22.30;96.80
20376;DHT22;10347;51.828;6.466;2022-07-03T01:31:46;22.30;97.10
20376;DHT22;10347;51.828;6.466;2022-07-03T01:34:13;22.30;96.90
20376;DHT22;10347;51.828;6.466;2022-07-03T01:36:42;22.20;96.90
20376;DHT22;10347;51.828;6.466;2022-07-03T01:39:10;22.20;97.30
20376;DHT22;10347;51.828;6.466;2022-07-03T01:41:37;22.20;97.70
20376;DHT22;10347;51.828;6.466;2022-07-03T01:44:03;22.10;97.80
20376;DHT22;10347;51.828;6.466;2022-07-03T01:46:31;22.10;98.10
20376;DHT22;10347;51.828;6.466;2022-07-03T01:48:58;22.00;98.20
20376;DHT22;10347;51.828;6.466;2022-07-03T01:51:25;22.00;98.40
20376;DHT22;10347;51.828;6.466;2022-07-03T01:53:52;22.00;98.70
20376;DHT22;10347;51.828;6.466;2022-07-03T01:56:19;22.00;98.90
20376;DHT22;10347;51.828;6.466;2022-07-03T01:58:45;21.90;99.10
20376;DHT22;10347;51.828;6.466;2022-07-03T02:01:45;21.90;99.10
20376;DHT22;10347;51.828;6.466;2022-07-03T02:04:20;21.90;99.20
20376;DHT22;10347;51.828;6.466;2022-07-03T02:07:28;21.80;99.00
20376;DHT22;10347;51.828;6.466;2022-07-03T02:10:05;21.80;99.90
20376;DHT22;10347;51.828;6.466;2022-07-03T02:12:42;21.70;99.40
20376;DHT22;10347;51.828;6.466;2022-07-03T02:15:10;21.70;99.90
20376;DHT22;10347;51.828;6.466;2022-07-03T02:17:46;21.70;99.90
20376;DHT22;10347;51.828;6.466;2022-07-03T02:20:15;21.60;99.90
20376;DHT22;10347;51.828;6.466;2022-07-03T02:22:44;21.60;99.90
20376;DHT22;10347;51.828;6.466;2022-07-03T02:25:26;21.60;99.90
20376;DHT22;10347;51.828;6.466;2022-07-03T02:31:02;21.50;99.90
20376;DHT22;10347;51.828;6.466;2022-07-03T02:33:30;21.40;99.90
20376;DHT22;10347;51.828;6.466;2022-07-03T02:35:57;21.40;99.90
20376;DHT22;10347;51.828;6.466;2022-07-03T02:38:24;21.40;99.90
20376;DHT22;10347;51.828;6.466;2022-07-03T02:40:56;21.30;99.90
20376;DHT22;10347;51.828;6.466;2022-07-03T02:43:41;21.30;99.90
20376;DHT22;10347;51.828;6.466;2022-07-03T02:55:44;21.20;99.90
20376;DHT22;10347;51.828;6.466;2022-07-03T03:00:28;21.00;99.90
20376;DHT22;10347;51.828;6.466;2022-07-03T03:02:58;21.00;99.90
20376;DHT22;10347;51.828;6.466;2022-07-03T03:05:30;20.90;99.90
20376;DHT22;10347;51.828;6.466;2022-07-03T03:08:10;21.00;99.90
20376;DHT22;10347;51.828;6.466;2022-07-03T03:10:37;20.90;99.90
20376;DHT22;10347;51.828;6.466;2022-07-03T03:15:33;20.80;99.90
20376;DHT22;10347;51.828;6.466;2022-07-03T03:18:05;20.80;99.90
20376;DHT22;10347;51.828;6.466;2022-07-03T03:20:32;20.80;99.90
20376;DHT22;10347;51.828;6.466;2022-07-03T03:26:01;20.50;99.90
20376;DHT22;10347;51.828;6.466;2022-07-03T03:28:27;20.40;99.90
20376;DHT22;10347;51.828;6.466;2022-07-03T03:30:53;20.30;99.90
20376;DHT22;10347;51.828;6.466;2022-07-03T03:33:19;20.30;99.90
20376;DHT22;10347;51.828;6.466;2022-07-03T03:35:45;20.30;99.90
20376;DHT22;10347;51.828;6.466;2022-07-03T03:38:11;20.30;99.90
20376;DHT22;10347;51.828;6.466;2022-07-03T03:40:37;20.30;99.90
20376;DHT22;10347;51.828;6.466;2022-07-03T03:43:03;20.30;99.90
20376;DHT22;10347;51.828;6.466;2022-07-03T03:45:29;20.20;99.90
20376;DHT22;10347;51.828;6.466;2022-07-03T03:47:54;20.20;99.90
20376;DHT22;10347;51.828;6.466;2022-07-03T03:50:20;20.20;99.90
20376;DHT22;10347;51.828;6.466;2022-07-03T03:52:46;20.10;99.90
20376;DHT22;10347;51.828;6.466;2022-07-03T03:55:12;20.10;99.90
20376;DHT22;10347;51.828;6.466;2022-07-03T03:57:38;20.10;99.90
20376;DHT22;10347;51.828;6.466;2022-07-03T04:00:05;20.10;99.90
20376;DHT22;10347;51.828;6.466;2022-07-03T04:02:31;20.10;99.90
20376;DHT22;10347;51.828;6.466;2022-07-03T04:04:57;20.10;99.90
20376;DHT22;10347;51.828;6.466;2022-07-03T04:07:22;20.10;99.90
20376;DHT22;10347;51.828;6.466;2022-07-03T04:09:48;20.00;99.90
20376;DHT22;10347;51.828;6.466;2022-07-03T04:12:13;20.00;99.90
20376;DHT22;10347;51.828;6.466;2022-07-03T04:14:39;20.00;99.90
20376;DHT22;10347;51.828;6.466;2022-07-03T04:17:05;19.90;99.90
20376;DHT22;10347;51.828;6.466;2022-07-03T04:19:31;19.90;99.90
20376;DHT22;10347;51.828;6.466;2022-07-03T04:21:56;19.90;99.90
20376;DHT22;10347;51.828;6.466;2022-07-03T04:24:22;19.90;99.90
20376;DHT22;10347;51.828;6.466;2022-07-03T04:26:48;19.90;99.90
20376;DHT22;10347;51.828;6.466;2022-07-03T04:29:13;19.90;99.90
20376;DHT22;10347;51.828;6.466;2022-07-03T04:31:39;19.90;99.90
20376;DHT22;10347;51.828;6.466;2022-07-03T04:34:05;19.90;99.90
20376;DHT22;10347;51.828;6.466;2022-07-03T04:36:30;19.90;99.90
20376;DHT22;10347;51.828;6.466;2022-07-03T04:38:56;19.90;99.90
20376;DHT22;10347;51.828;6.466;2022-07-03T04:41:22;19.80;99.90
20376;DHT22;10347;51.828;6.466;2022-07-03T04:43:47;19.80;99.90
20376;DHT22;10347;51.828;6.466;2022-07-03T04:46:13;19.80;99.90
20376;DHT22;10347;51.828;6.466;2022-07-03T04:48:38;19.80;99.90
20376;DHT22;10347;51.828;6.466;2022-07-03T04:51:04;19.80;99.90
20376;DHT22;10347;51.828;6.466;2022-07-03T04:53:29;19.90;99.90
20376;DHT22;10347;51.828;6.466;2022-07-03T04:55:55;19.90;99.90
20376;DHT22;10347;51.828;6.466;2022-07-03T04:58:21;19.90;99.90
20376;DHT22;10347;51.828;6.466;2022-07-03T05:00:46;19.90;99.90
20376;DHT22;10347;51.828;6.466;2022-07-03T05:03:12;19.90;99.90
20376;DHT22;10347;51.828;6.466;2022-07-03T05:05:38;19.90;99.90
20376;DHT22;10347;51.828;6.466;2022-07-03T05:08:04;19.90;99.90
20376;DHT22;10347;51.828;6.466;2022-07-03T05:10:30;20.00;99.90
20376;DHT22;10347;51.828;6.466;2022-07-03T05:12:56;20.00;99.90
20376;DHT22;10347;51.828;6.466;2022-07-03T05:15:21;20.00;99.90
20376;DHT22;10347;51.828;6.466;2022-07-03T05:17:47;20.00;99.90
20376;DHT22;10347;51.828;6.466;2022-07-03T05:20:13;20.00;99.90
20376;DHT22;10347;51.828;6.466;2022-07-03T05:22:58;20.00;99.90
20376;DHT22;10347;51.828;6.466;2022-07-03T05:25:25;20.00;99.90
20376;DHT22;10347;51.828;6.466;2022-07-03T05:27:51;20.00;99.90
20376;DHT22;10347;51.828;6.466;2022-07-03T05:30:22;20.00;99.90
20376;DHT22;10347;51.828;6.466;2022-07-03T05:32:48;20.10;99.90
20376;DHT22;10347;51.828;6.466;2022-07-03T05:35:13;20.10;99.90
20376;DHT22;10347;51.828;6.466;2022-07-03T05:37:39;20.10;99.90
20376;DHT22;10347;51.828;6.466;2022-07-03T05:40:06;20.10;99.90
20376;DHT22;10347;51.828;6.466;2022-07-03T05:42:31;20.10;99.90
20376;DHT22;10347;51.828;6.466;2022-07-03T05:44:57;20.10;99.90
20376;DHT22;10347;51.828;6.466;2022-07-03T05:47:23;20.10;99.90
20376;DHT22;10347;51.828;6.466;2022-07-03T05:49:48;20.20;99.90
20376;DHT22;10347;51.828;6.466;2022-07-03T05:52:14;20.20;99.90
20376;DHT22;10347;51.828;6.466;2022-07-03T05:54:41;20.20;99.90
20376;DHT22;10347;51.828;6.466;2022-07-03T05:57:07;20.20;99.90
20376;DHT22;10347;51.828;6.466;2022-07-03T05:59:33;20.20;99.90
20376;DHT22;10347;51.828;6.466;2022-07-03T06:01:58;20.20;99.90
20376;DHT22;10347;51.828;6.466;2022-07-03T06:04:24;20.20;99.90
20376;DHT22;10347;51.828;6.466;2022-07-03T06:06:49;20.20;99.90
20376;DHT22;10347;51.828;6.466;2022-07-03T06:09:15;20.20;99.90
20376;DHT22;10347;51.828;6.466;2022-07-03T06:11:41;20.30;99.90
20376;DHT22;10347;51.828;6.466;2022-07-03T06:14:06;20.30;99.90
20376;DHT22;10347;51.828;6.466;2022-07-03T06:16:32;20.30;99.90
20376;DHT22;10347;51.828;6.466;2022-07-03T06:18:58;20.30;99.90
20376;DHT22;10347;51.828;6.466;2022-07-03T06:21:24;20.30;99.90
20376;DHT22;10347;51.828;6.466;2022-07-03T06:23:50;20.40;99.90
20376;DHT22;10347;51.828;6.466;2022-07-03T06:26:16;20.40;99.90
20376;DHT22;10347;51.828;6.466;2022-07-03T06:28:42;20.40;99.90
20376;DHT22;10347;51.828;6.466;2022-07-03T06:31:08;20.50;99.90
20376;DHT22;10347;51.828;6.466;2022-07-03T06:33:34;20.50;99.90
20376;DHT22;10347;51.828;6.466;2022-07-03T06:35:59;20.50;99.90
20376;DHT22;10347;51.828;6.466;2022-07-03T06:38:25;20.60;99.90
20376;DHT22;10347;51.828;6.466;2022-07-03T06:40:50;20.60;99.90
20376;DHT22;10347;51.828;6.466;2022-07-03T06:43:17;20.60;99.90
20376;DHT22;10347;51.828;6.466;2022-07-03T06:45:43;20.60;99.90
20376;DHT22;10347;51.828;6.466;2022-07-03T06:48:08;20.70;99.90
20376;DHT22;10347;51.828;6.466;2022-07-03T06:50:34;20.70;99.90
20376;DHT22;10347;51.828;6.466;2022-07-03T06:53:00;20.70;99.90
20376;DHT22;10347;51.828;6.466;2022-07-03T06:55:26;20.80;99.90
20376;DHT22;10347;51.828;6.466;2022-07-03T06:57:51;20.80;99.90
20376;DHT22;10347;51.828;6.466;2022-07-03T07:00:17;20.80;99.90
20376;DHT22;10347;51.828;6.466;2022-07-03T07:02:43;20.80;99.90
20376;DHT22;10347;51.828;6.466;2022-07-03T07:05:08;20.90;99.90
20376;DHT22;10347;51.828;6.466;2022-07-03T07:07:34;20.90;99.90
20376;DHT22;10347;51.828;6.466;2022-07-03T07:10:00;20.90;99.90
20376;DHT22;10347;51.828;6.466;2022-07-03T07:12:25;20.90;99.90
20376;DHT22;10347;51.828;6.466;2022-07-03T07:14:51;21.00;99.90
20376;DHT22;10347;51.828;6.466;2022-07-03T07:17:17;21.10;99.90
20376;DHT22;10347;51.828;6.466;2022-07-03T07:19:42;21.10;99.90
20376;DHT22;10347;51.828;6.466;2022-07-03T07:22:08;21.20;99.90
20376;DHT22;10347;51.828;6.466;2022-07-03T07:24:33;21.20;99.90
20376;DHT22;10347;51.828;6.466;2022-07-03T07:26:59;21.20;99.90
20376;DHT22;10347;51.828;6.466;2022-07-03T07:29:25;21.20;99.90
20376;DHT22;10347;51.828;6.466;2022-07-03T07:31:50;21.30;99.90
20376;DHT22;10347;51.828;6.466;2022-07-03T07:34:16;21.30;99.90
20376;DHT22;10347;51.828;6.466;2022-07-03T07:36:41;21.40;99.90
20376;DHT22;10347;51.828;6.466;2022-07-03T07:39:07;21.40;99.90
20376;DHT22;10347;51.828;6.466;2022-07-03T07:41:33;21.40;99.90
20376;DHT22;10347;51.828;6.466;2022-07-03T07:43:58;21.50;99.90
20376;DHT22;10347;51.828;6.466;2022-07-03T07:46:24;21.50;99.90
20376;DHT22;10347;51.828;6.466;2022-07-03T07:48:49;21.50;99.90
20376;DHT22;10347;51.828;6.466;2022-07-03T07:51:15;21.60;99.90
20376;DHT22;10347;51.828;6.466;2022-07-03T07:53:41;21.60;99.90
20376;DHT22;10347;51.828;6.466;2022-07-03T07:56:07;21.70;99.90
20376;DHT22;10347;51.828;6.466;2022-07-03T07:58:32;21.70;99.90
20376;DHT22;10347;51.828;6.466;2022-07-03T08:00:58;21.70;99.90
20376;DHT22;10347;51.828;6.466;2022-07-03T08:03:42;21.80;99.90
20376;DHT22;10347;51.828;6.466;2022-07-03T08:06:26;21.80;99.90
20376;DHT22;10347;51.828;6.466;2022-07-03T08:08:52;21.90;99.90
20376;DHT22;10347;51.828;6.466;2022-07-03T08:11:17;21.90;99.90
20376;DHT22;10347;51.828;6.466;2022-07-03T08:13:43;22.00;99.90
20376;DHT22;10347;51.828;6.466;2022-07-03T08:16:11;22.00;99.90
20376;DHT22;10347;51.828;6.466;2022-07-03T08:18:37;22.10;99.90
20376;DHT22;10347;51.828;6.466;2022-07-03T08:21:03;22.10;99.90
20376;DHT22;10347;51.828;6.466;2022-07-03T08:23:28;22.20;99.90
20376;DHT22;10347;51.828;6.466;2022-07-03T08:25:54;22.20;99.90
20376;DHT22;10347;51.828;6.466;2022-07-03T08:28:20;22.30;99.90
20376;DHT22;10347;51.828;6.466;2022-07-03T08:30:45;22.30;99.90
20376;DHT22;10347;51.828;6.466;2022-07-03T08:33:11;22.30;99.90
20376;DHT22;10347;51.828;6.466;2022-07-03T08:35:36;22.40;99.90
20376;DHT22;10347;51.828;6.466;2022-07-03T08:38:02;22.40;99.90
20376;DHT22;10347;51.828;6.466;2022-07-03T08:40:28;22.50;99.90
20376;DHT22;10347;51.828;6.466;2022-07-03T08:42:58;22.50;99.90
20376;DHT22;10347;51.828;6.466;2022-07-03T08:45:25;22.60;99.90
20376;DHT22;10347;51.828;6.466;2022-07-03T08:47:54;22.70;99.90
20376;DHT22;10347;51.828;6.466;2022-07-03T08:50:20;22.70;99.90
20376;DHT22;10347;51.828;6.466;2022-07-03T08:52:47;22.80;99.90
20376;DHT22;10347;51.828;6.466;2022-07-03T08:55:14;22.80;99.90
20376;DHT22;10347;51.828;6.466;2022-07-03T08:57:42;22.90;99.90
20376;DHT22;10347;51.828;6.466;2022-07-03T09:00:10;22.90;99.90
20376;DHT22;10347;51.828;6.466;2022-07-03T09:02:39;23.00;99.90
20376;DHT22;10347;51.828;6.466;2022-07-03T09:05:07;23.00;99.90
20376;DHT22;10347;51.828;6.466;2022-07-03T09:07:39;23.00;99.90
20376;DHT22;10347;51.828;6.466;2022-07-03T09:10:06;23.10;99.90
20376;DHT22;10347;51.828;6.466;2022-07-03T09:12:32;23.20;99.90
20376;DHT22;10347;51.828;6.466;2022-07-03T09:14:59;23.20;99.90
20376;DHT22;10347;51.828;6.466;2022-07-03T09:17:25;23.20;99.90
20376;DHT22;10347;51.828;6.466;2022-07-03T09:19:51;23.30;99.90
20376;DHT22;10347;51.828;6.466;2022-07-03T09:22:27;23.40;99.90
20376;DHT22;10347;51.828;6.466;2022-07-03T09:25:09;23.40;99.90
20376;DHT22;10347;51.828;6.466;2022-07-03T09:27:37;23.50;99.90
20376;DHT22;10347;51.828;6.466;2022-07-03T09:30:05;23.60;99.90
20376;DHT22;10347;51.828;6.466;2022-07-03T09:32:51;23.60;99.90
20376;DHT22;10347;51.828;6.466;2022-07-03T09:35:26;23.70;99.90
20376;DHT22;10347;51.828;6.466;2022-07-03T09:37:57;23.80;99.90
20376;DHT22;10347;51.828;6.466;2022-07-03T09:40:24;23.90;99.90
20376;DHT22;10347;51.828;6.466;2022-07-03T09:43:01;23.90;99.90
20376;DHT22;10347;51.828;6.466;2022-07-03T09:48:28;24.00;99.60
20376;DHT22;10347;51.828;6.466;2022-07-03T09:51:23;24.10;99.50
20376;DHT22;10347;51.828;6.466;2022-07-03T09:53:59;24.20;99.20
20376;DHT22;10347;51.828;6.466;2022-07-03T10:01:26;24.30;98.10
20376;DHT22;10347;51.828;6.466;2022-07-03T10:03:51;24.30;98.50
20376;DHT22;10347;51.828;6.466;2022-07-03T10:06:19;24.30;98.40
20376;DHT22;10347;51.828;6.466;2022-07-03T10:08:45;24.40;98.90
20376;DHT22;10347;51.828;6.466;2022-07-03T10:11:12;24.40;98.50
20376;DHT22;10347;51.828;6.466;2022-07-03T10:13:39;24.50;98.40
20376;DHT22;10347;51.828;6.466;2022-07-03T10:16:06;24.60;98.10
20376;DHT22;10347;51.828;6.466;2022-07-03T10:18:36;24.60;97.80
20376;DHT22;10347;51.828;6.466;2022-07-03T10:21:07;24.70;97.00
20376;DHT22;10347;51.828;6.466;2022-07-03T10:23:33;24.70;96.80
20376;DHT22;10347;51.828;6.466;2022-07-03T10:25:59;24.80;96.50
20376;DHT22;10347;51.828;6.466;2022-07-03T10:28:25;24.80;96.90
20376;DHT22;10347;51.828;6.466;2022-07-03T10:30:51;24.80;97.10
20376;DHT22;10347;51.828;6.466;2022-07-03T10:33:17;24.90;96.80
20376;DHT22;10347;51.828;6.466;2022-07-03T10:35:53;25.00;96.80
20376;DHT22;10347;51.828;6.466;2022-07-03T10:38:25;25.00;95.40
20376;DHT22;10347;51.828;6.466;2022-07-03T10:40:57;25.10;95.00
20376;DHT22;10347;51.828;6.466;2022-07-03T10:43:46;25.10;94.30
20376;DHT22;10347;51.828;6.466;2022-07-03T10:46:31;25.10;94.50
20376;DHT22;10347;51.828;6.466;2022-07-03T10:49:05;25.20;94.20
20376;DHT22;10347;51.828;6.466;2022-07-03T10:54:50;25.30;92.70
20376;DHT22;10347;51.828;6.466;2022-07-03T10:57:17;25.30;92.40
20376;DHT22;10347;51.828;6.466;2022-07-03T11:02:34;25.30;93.60
20376;DHT22;10347;51.828;6.466;2022-07-03T11:18:19;25.30;92.10
20376;DHT22;10347;51.828;6.466;2022-07-03T11:25:47;25.40;92.40
20376;DHT22;10347;51.828;6.466;2022-07-03T11:41:41;25.50;93.40
20376;DHT22;10347;51.828;6.466;2022-07-03T11:44:08;25.50;92.90
20376;DHT22;10347;51.828;6.466;2022-07-03T11:46:36;25.50;92.90
20376;DHT22;10347;51.828;6.466;2022-07-03T11:49:12;25.50;93.20
20376;DHT22;10347;51.828;6.466;2022-07-03T11:51:39;25.60;92.90
20376;DHT22;10347;51.828;6.466;2022-07-03T11:54:06;25.60;93.10
20376;DHT22;10347;51.828;6.466;2022-07-03T11:56:32;25.70;93.30
20376;DHT22;10347;51.828;6.466;2022-07-03T11:58:59;25.70;93.30
20376;DHT22;10347;51.828;6.466;2022-07-03T12:04:13;25.60;93.20
20376;DHT22;10347;51.828;6.466;2022-07-03T12:09:20;25.60;92.60
20376;DHT22;10347;51.828;6.466;2022-07-03T12:14:36;25.60;92.30
20376;DHT22;10347;51.828;6.466;2022-07-03T12:17:02;25.70;92.30
20376;DHT22;10347;51.828;6.466;2022-07-03T12:19:27;25.70;92.80
20376;DHT22;10347;51.828;6.466;2022-07-03T12:21:53;25.80;92.70
20376;DHT22;10347;51.828;6.466;2022-07-03T12:24:18;25.80;92.80
20376;DHT22;10347;51.828;6.466;2022-07-03T12:26:45;25.90;93.00
20376;DHT22;10347;51.828;6.466;2022-07-03T12:29:14;25.90;92.60
20376;DHT22;10347;51.828;6.466;2022-07-03T12:31:42;25.90;92.70
20376;DHT22;10347;51.828;6.466;2022-07-03T12:34:10;25.90;93.00
20376;DHT22;10347;51.828;6.466;2022-07-03T12:36:35;25.90;92.70
20376;DHT22;10347;51.828;6.466;2022-07-03T12:39:02;26.00;92.60
20376;DHT22;10347;51.828;6.466;2022-07-03T12:41:28;26.00;92.30
20376;DHT22;10347;51.828;6.466;2022-07-03T12:43:54;26.10;92.50
20376;DHT22;10347;51.828;6.466;2022-07-03T12:48:55;26.10;91.90
20376;DHT22;10347;51.828;6.466;2022-07-03T12:51:48;26.20;92.00
20376;DHT22;10347;51.828;6.466;2022-07-03T12:54:15;26.20;90.70
20376;DHT22;10347;51.828;6.466;2022-07-03T12:56:44;26.20;90.80
20376;DHT22;10347;51.828;6.466;2022-07-03T12:59:26;26.30;89.60
20376;DHT22;10347;51.828;6.466;2022-07-03T13:02:03;26.30;89.70
20376;DHT22;10347;51.828;6.466;2022-07-03T13:04:37;26.40;89.10
20376;DHT22;10347;51.828;6.466;2022-07-03T13:07:04;26.40;88.90
20376;DHT22;10347;51.828;6.466;2022-07-03T13:09:31;26.50;89.00
20376;DHT22;10347;51.828;6.466;2022-07-03T13:11:57;26.50;88.60
20376;DHT22;10347;51.828;6.466;2022-07-03T13:14:23;26.50;88.40
20376;DHT22;10347;51.828;6.466;2022-07-03T13:16:52;26.50;88.40
20376;DHT22;10347;51.828;6.466;2022-07-03T13:19:26;26.50;88.10
20376;DHT22;10347;51.828;6.466;2022-07-03T13:21:54;26.50;86.90
20376;DHT22;10347;51.828;6.466;2022-07-03T13:24:20;26.60;86.20
20376;DHT22;10347;51.828;6.466;2022-07-03T13:26:47;26.50;86.20
20376;DHT22;10347;51.828;6.466;2022-07-03T13:29:13;26.50;85.80
20376;DHT22;10347;51.828;6.466;2022-07-03T13:31:38;26.50;85.30
20376;DHT22;10347;51.828;6.466;2022-07-03T13:34:04;26.40;84.80
20376;DHT22;10347;51.828;6.466;2022-07-03T13:36:31;26.40;85.10
20376;DHT22;10347;51.828;6.466;2022-07-03T13:38:57;26.40;84.90
20376;DHT22;10347;51.828;6.466;2022-07-03T13:41:23;26.40;85.30
20376;DHT22;10347;51.828;6.466;2022-07-03T13:43:50;26.40;85.00
20376;DHT22;10347;51.828;6.466;2022-07-03T13:46:17;26.40;85.20
20376;DHT22;10347;51.828;6.466;2022-07-03T13:48:42;26.50;85.10
20376;DHT22;10347;51.828;6.466;2022-07-03T13:51:08;26.50;85.70
20376;DHT22;10347;51.828;6.466;2022-07-03T13:53:35;26.50;85.70
20376;DHT22;10347;51.828;6.466;2022-07-03T13:56:00;26.60;86.20
20376;DHT22;10347;51.828;6.466;2022-07-03T13:58:26;26.60;84.50
20376;DHT22;10347;51.828;6.466;2022-07-03T14:00:53;26.70;83.70
20376;DHT22;10347;51.828;6.466;2022-07-03T14:03:19;26.70;82.40
20376;DHT22;10347;51.828;6.466;2022-07-03T14:05:45;26.70;83.40
20376;DHT22;10347;51.828;6.466;2022-07-03T14:08:11;26.70;84.00
20376;DHT22;10347;51.828;6.466;2022-07-03T14:10:37;26.60;84.00
20376;DHT22;10347;51.828;6.466;2022-07-03T14:13:03;26.60;84.00
20376;DHT22;10347;51.828;6.466;2022-07-03T14:15:28;26.50;84.60
20376;DHT22;10347;51.828;6.466;2022-07-03T14:17:54;26.50;85.10
20376;DHT22;10347;51.828;6.466;2022-07-03T14:20:20;26.60;85.10
20376;DHT22;10347;51.828;6.466;2022-07-03T14:22:45;26.60;85.60
20376;DHT22;10347;51.828;6.466;2022-07-03T14:25:11;26.60;86.30
20376;DHT22;10347;51.828;6.466;2022-07-03T14:27:36;26.60;86.80
20376;DHT22;10347;51.828;6.466;2022-07-03T14:30:21;26.60;87.80
20376;DHT22;10347;51.828;6.466;2022-07-03T14:33:05;26.70;87.40
20376;DHT22;10347;51.828;6.466;2022-07-03T14:35:31;26.70;87.30
20376;DHT22;10347;51.828;6.466;2022-07-03T14:37:56;26.70;87.00
20376;DHT22;10347;51.828;6.466;2022-07-03T14:40:22;26.80;85.70
20376;DHT22;10347;51.828;6.466;2022-07-03T14:42:48;26.70;84.80
20376;DHT22;10347;51.828;6.466;2022-07-03T14:45:13;26.70;84.00
20376;DHT22;10347;51.828;6.466;2022-07-03T14:47:39;26.60;85.00
20376;DHT22;10347;51.828;6.466;2022-07-03T14:50:05;26.60;84.60
20376;DHT22;10347;51.828;6.466;2022-07-03T14:52:31;26.60;83.70
20376;DHT22;10347;51.828;6.466;2022-07-03T14:54:57;26.60;83.80
20376;DHT22;10347;51.828;6.466;2022-07-03T15:02:48;26.60;83.40
20376;DHT22;10347;51.828;6.466;2022-07-03T15:05:15;26.60;81.90
20376;DHT22;10347;51.828;6.466;2022-07-03T15:10:35;26.60;84.80
20376;DHT22;10347;51.828;6.466;2022-07-03T15:13:03;26.60;85.20
20376;DHT22;10347;51.828;6.466;2022-07-03T15:15:30;26.60;83.90
20376;DHT22;10347;51.828;6.466;2022-07-03T15:17:58;26.60;83.60
20376;DHT22;10347;51.828;6.466;2022-07-03T15:20:30;26.60;84.10
20376;DHT22;10347;51.828;6.466;2022-07-03T15:22:57;26.60;85.10
20376;DHT22;10347;51.828;6.466;2022-07-03T15:25:25;26.60;85.50
20376;DHT22;10347;51.828;6.466;2022-07-03T15:27:52;26.60;85.00
20376;DHT22;10347;51.828;6.466;2022-07-03T15:30:19;26.60;85.10
20376;DHT22;10347;51.828;6.466;2022-07-03T15:32:46;26.70;84.00
20376;DHT22;10347;51.828;6.466;2022-07-03T15:35:16;26.60;81.60
20376;DHT22;10347;51.828;6.466;2022-07-03T15:37:49;26.60;80.90
20376;DHT22;10347;51.828;6.466;2022-07-03T15:40:23;26.60;81.70
20376;DHT22;10347;51.828;6.466;2022-07-03T15:45:45;26.70;83.50
20376;DHT22;10347;51.828;6.466;2022-07-03T15:48:17;26.60;83.70
20376;DHT22;10347;51.828;6.466;2022-07-03T15:53:40;26.40;84.10
20376;DHT22;10347;51.828;6.466;2022-07-03T15:56:07;26.40;85.20
20376;DHT22;10347;51.828;6.466;2022-07-03T15:58:34;26.30;85.80
20376;DHT22;10347;51.828;6.466;2022-07-03T16:01:05;26.30;86.50
20376;DHT22;10347;51.828;6.466;2022-07-03T16:04:02;26.40;87.10
20376;DHT22;10347;51.828;6.466;2022-07-03T16:06:30;26.40;85.80
20376;DHT22;10347;51.828;6.466;2022-07-03T16:08:56;26.20;86.00
20376;DHT22;10347;51.828;6.466;2022-07-03T16:11:22;26.20;86.40
20376;DHT22;10347;51.828;6.466;2022-07-03T16:13:49;26.10;87.10
20376;DHT22;10347;51.828;6.466;2022-07-03T16:16:20;26.10;87.40
20376;DHT22;10347;51.828;6.466;2022-07-03T16:18:46;26.10;86.70
20376;DHT22;10347;51.828;6.466;2022-07-03T16:21:13;26.10;87.10
20376;DHT22;10347;51.828;6.466;2022-07-03T16:23:42;26.10;87.30
20376;DHT22;10347;51.828;6.466;2022-07-03T16:26:09;26.10;87.30
20376;DHT22;10347;51.828;6.466;2022-07-03T16:28:35;26.00;87.40
20376;DHT22;10347;51.828;6.466;2022-07-03T16:31:01;26.00;87.00
20376;DHT22;10347;51.828;6.466;2022-07-03T16:33:33;26.00;87.30
20376;DHT22;10347;51.828;6.466;2022-07-03T16:36:06;26.00;87.10
20376;DHT22;10347;51.828;6.466;2022-07-03T16:38:37;26.00;86.10
20376;DHT22;10347;51.828;6.466;2022-07-03T16:41:05;26.00;87.00
20376;DHT22;10347;51.828;6.466;2022-07-03T16:43:32;26.00;86.60
20376;DHT22;10347;51.828;6.466;2022-07-03T16:46:01;26.00;86.40
20376;DHT22;10347;51.828;6.466;2022-07-03T16:48:28;26.00;86.50
20376;DHT22;10347;51.828;6.466;2022-07-03T16:50:59;26.00;86.50
20376;DHT22;10347;51.828;6.466;2022-07-03T16:53:30;26.00;85.50
20376;DHT22;10347;51.828;6.466;2022-07-03T16:55:56;25.90;85.80
20376;DHT22;10347;51.828;6.466;2022-07-03T16:58:22;25.90;85.70
20376;DHT22;10347;51.828;6.466;2022-07-03T17:00:48;25.80;85.80
20376;DHT22;10347;51.828;6.466;2022-07-03T17:03:18;25.70;85.00
20376;DHT22;10347;51.828;6.466;2022-07-03T17:05:45;25.60;85.10
20376;DHT22;10347;51.828;6.466;2022-07-03T17:08:15;25.60;85.10
20376;DHT22;10347;51.828;6.466;2022-07-03T17:10:41;25.50;84.90
20376;DHT22;10347;51.828;6.466;2022-07-03T17:13:08;25.40;85.20
20376;DHT22;10347;51.828;6.466;2022-07-03T17:15:35;25.40;85.40
20376;DHT22;10347;51.828;6.466;2022-07-03T17:18:06;25.40;85.10